Home > Products > Valid Products > MTR

000
SAUS45 KTWC 281252
MTRSAD
METAR KSAD 281251Z AUTO 12010KT 10SM CLR 09/M06 A3019 RMK AO2 SLP204
T00941056





000
SAUS45 KTWC 281152
MTRSAD
METAR KSAD 281151Z AUTO 15009KT 10SM CLR 10/M06 A3019 RMK AO2 SLP194
T01001056 10122 20089 55005





000
SAUS45 KTWC 281052
MTRSAD
METAR KSAD 281051Z AUTO 15011KT 10SM CLR 10/M06 A3018 RMK AO2 SLP191
T01001056





000
SAUS45 KTWC 280952
MTRSAD
METAR KSAD 280951Z AUTO 13008KT 10SM CLR 10/M06 A3019 RMK AO2 SLP194
T01001056





000
SAUS45 KTWC 280852
MTRSAD
METAR KSAD 280851Z AUTO 12010KT 10SM CLR 11/M06 A3020 RMK AO2 SLP198
T01061056 58008





000
SAUS45 KTWC 280752
MTRSAD
METAR KSAD 280751Z AUTO 13011KT 10SM CLR 12/M05 A3021 RMK AO2 SLP202
T01171050





000
SAUS45 KTWC 280652
MTRSAD
METAR KSAD 280651Z AUTO 14009KT 10SM CLR 12/M06 A3022 RMK AO2 SLP207
T01171056 402280028





000
SAUS45 KTWC 280553
MTRSAD
METAR KSAD 280551Z AUTO 13008KT 10SM CLR 12/M06 A3023 RMK AO2 SLP212
T01171056 10217 20100 53000





000
SAUS45 KTWC 280453
MTRSAD
METAR KSAD 280451Z AUTO 14008KT 10SM CLR 12/M06 A3023 RMK AO2 SLP213
T01171061





000
SAUS45 KTWC 280353
MTRSAD
METAR KSAD 280351Z AUTO 10009KT 10SM CLR 12/M06 A3022 RMK AO2 SLP216
T01171061





000
SAUS45 KTWC 280353
MTRSAD
METAR KSAD 280351Z AUTO 10009KT 10SM CLR 12/M06 A3022 RMK AO2 SLP216
T01171061





000
SAUS45 KTWC 280253
MTRSAD
METAR KSAD 280251Z AUTO 15005KT 10SM CLR 12/M06 A3023 RMK AO2 SLP221
T01221061 53008





000
SAUS45 KTWC 280152
MTRSAD
METAR KSAD 280151Z AUTO 17007KT 10SM CLR 16/M07 A3022 RMK AO2 SLP218
T01561067





000
SAUS45 KTWC 280152
MTRSAD
METAR KSAD 280151Z AUTO 17007KT 10SM CLR 16/M07 A3022 RMK AO2 SLP218
T01561067





000
SAUS45 KTWC 280052
MTRSAD
METAR KSAD 280051Z AUTO 08004KT 10SM CLR 15/M07 A3021 RMK AO2 SLP217
T01501072





000
SAUS45 KTWC 272352
MTRSAD
METAR KSAD 272351Z AUTO 00000KT 10SM CLR 22/M07 A3020 RMK AO2 SLP203
T02171067 10228 20172 56012





000
SAUS45 KTWC 272252
MTRSAD
METAR KSAD 272251Z AUTO 17007KT 10SM CLR 23/M07 A3021 RMK AO2 SLP204
T02281072





000
SAUS45 KTWC 272152
MTRSAD
METAR KSAD 272151Z AUTO 17006KT 10SM CLR 23/M07 A3022 RMK AO2 SLP207
T02281072





000
SAUS45 KTWC 272053
MTRSAD
METAR KSAD 272051Z AUTO VRB05KT 10SM CLR 22/M07 A3024 RMK AO2 SLP218
T02221072 56037





000
SAUS45 KTWC 271953
MTRSAD
METAR KSAD 271951Z AUTO VRB05KT 10SM CLR 21/M07 A3028 RMK AO2 SLP231
T02111072





000
SAUS45 KTWC 271852
MTRSAD
METAR KSAD 271851Z AUTO 15009KT 10SM CLR 19/M07 A3032 RMK AO2 SLP248
T01941067





000
SAUS45 KTWC 271753
MTRSAD
METAR KSAD 271751Z AUTO 12007KT 10SM CLR 17/M07 A3036 RMK AO2 SLP263
T01721067 10172 20028 50003





000
SAUS45 KTWC 271653
MTRSAD
METAR KSAD 271651Z AUTO 14011KT 10SM CLR 15/M07 A3038 RMK AO2 SLP270
T01501072





000
SAUS45 KTWC 271552
MTRSAD
METAR KSAD 271551Z AUTO 13011KT 10SM CLR 13/M08 A3037 RMK AO2 SLP269
T01281078





000
SAUS45 KTWC 271452
MTRSAD
METAR KSAD 271451Z AUTO 12010KT 10SM CLR 08/M09 A3035 RMK AO2 SLP266
T00831089 53009





000
SAUS45 KTWC 271352
MTRSAD
METAR KSAD 271351Z AUTO 16013KT 10SM CLR 04/M09 A3034 RMK AO2 SLP265
T00441089





000
SAUS45 KTWC 271252
MTRSAD
METAR KSAD 271251Z AUTO 16011KT 10SM CLR 03/M09 A3032 RMK AO2 SLP260
T00281094





000
SAUS45 KTWC 271152
MTRSAD
METAR KSAD 271151Z AUTO 14010KT 10SM CLR 06/M08 A3032 RMK AO2 SLP248
T00611083 10067 20028 50004





000
SAUS45 KTWC 271053
MTRSAD
METAR KSAD 271051Z AUTO 15009KT 10SM CLR 06/M08 A3032 RMK AO2 SLP247
T00611078





000
SAUS45 KTWC 270953
MTRSAD
METAR KSAD 270951Z AUTO 11008KT 10SM CLR 06/M09 A3031 RMK AO2 SLP246
T00561094





000
SAUS45 KTWC 270853
MTRSAD
METAR KSAD 270851Z AUTO 12006KT 10SM CLR 04/M11 A3031 RMK AO2 SLP245
T00441106 51005





000
SAUS45 KTWC 270752
MTRSAD
METAR KSAD 270751Z AUTO 10006KT 10SM CLR 04/M11 A3030 RMK AO2 SLP248
T00441106





000
SAUS45 KTWC 270652
MTRSAD
METAR KSAD 270651Z AUTO 00000KT 10SM CLR 04/M11 A3031 RMK AO2 SLP249
T00441106 401891022





000
SAUS45 KTWC 270552
MTRSAD
METAR KSAD 270551Z AUTO 00000KT 10SM CLR 06/M11 A3029 RMK AO2 SLP246
T00561106 10178 20056 53009





000
SAUS45 KTWC 270452
MTRSAD
METAR KSAD 270451Z AUTO 13003KT 10SM CLR 07/M11 A3028 RMK AO2 SLP242
T00721106





000
SAUS45 KTWC 270452
MTRSAD
METAR KSAD 270451Z AUTO 13003KT 10SM CLR 07/M11 A3028 RMK AO2 SLP242
T00721106





000
SAUS45 KTWC 270352
MTRSAD
METAR KSAD 270351Z AUTO 07006KT 10SM CLR 08/M11 A3027 RMK AO2 SLP243
T00831106





000
SAUS45 KTWC 270352
MTRSAD
METAR KSAD 270351Z AUTO 07006KT 10SM CLR 08/M11 A3027 RMK AO2 SLP243
T00831106





000
SAUS45 KTWC 270252
MTRSAD
METAR KSAD 270251Z AUTO 15005KT 10SM CLR 09/M10 A3026 RMK AO2 SLP244
T00891100 53007





000
SAUS45 KTWC 270152
MTRSAD
METAR KSAD 270151Z AUTO 09005KT 10SM CLR 10/M11 A3025 RMK AO2 SLP242
T01001111





000
SAUS45 KTWC 270052
MTRSAD
METAR KSAD 270051Z AUTO 00000KT 10SM CLR 13/M10 A3024 RMK AO2 SLP234
T01281100





000
SAUS45 KTWC 262353
MTRSAD
METAR KSAD 262351Z AUTO 29003KT 10SM CLR 18/M11 A3024 RMK AO2 SLP229
T01781106 10189 20117 55006





000
SAUS45 KTWC 262253
MTRSAD
METAR KSAD 262251Z AUTO 27006KT 10SM CLR 19/M12 A3023 RMK AO2 SLP223
T01891117





000
SAUS45 KTWC 262153
MTRSAD
METAR KSAD 262151Z AUTO 28006KT 10SM CLR 19/M13 A3024 RMK AO2 SLP226
T01891128





000
SAUS45 KTWC 262153
MTRSAD
METAR KSAD 262151Z AUTO 28006KT 10SM CLR 19/M13 A3024 RMK AO2 SLP226
T01891128





000
SAUS45 KTWC 262053
MTRSAD
METAR KSAD 262051Z AUTO VRB03KT 10SM CLR 17/M13 A3026 RMK AO2 SLP234
T01721133 56035





000
SAUS45 KTWC 261953
MTRSAD
METAR KSAD 261951Z AUTO 29004KT 10SM CLR 16/M14 A3029 RMK AO2 SLP245
T01561139





000
SAUS45 KTWC 261852
MTRSAD
METAR KSAD 261851Z AUTO VRB03KT 10SM CLR 14/M14 A3033 RMK AO2 SLP263
T01391144





000
SAUS45 KTWC 261753
MTRSAD
METAR KSAD 261751Z AUTO 00000KT 10SM CLR 12/M14 A3037 RMK AO2 SLP276
T01221139 10122 21022 50001





000
SAUS45 KTWC 261652
MTRSAD
METAR KSAD 261651Z AUTO VRB03KT 10SM CLR 09/M15 A3038 RMK AO2 SLP283
T00891150





000
SAUS45 KTWC 261552
MTRSAD
METAR KSAD 261551Z AUTO 11004KT 10SM CLR 05/M16 A3037 RMK AO2 SLP285
T00501156





000
SAUS45 KTWC 261452
MTRSAD
METAR KSAD 261451Z AUTO 10003KT 10SM CLR 01/M16 A3036 RMK AO2 SLP286
T00111156 53009





000
SAUS45 KTWC 261352
MTRSAD
METAR KSAD 261351Z AUTO 00000KT 10SM CLR M02/M16 A3035 RMK AO2
SLP281 T10171161





000
SAUS45 KTWC 261253
MTRSAD
METAR KSAD 261251Z AUTO 13005KT 10SM CLR M01/M16 A3034 RMK AO2
SLP272 T10111161





000
SAUS45 KTWC 261152
MTRSAD
METAR KSAD 261151Z AUTO 10005KT 10SM CLR M02/M16 A3034 RMK AO2
SLP268 T10171161 10033 21017 53002





000
SAUS45 KTWC 261052
MTRSAD
METAR KSAD 261051Z AUTO 15006KT 10SM CLR 01/M16 A3033 RMK AO2 SLP263
T00061161





000
SAUS45 KTWC 260952
MTRSAD
METAR KSAD 260951Z AUTO 07006KT 10SM CLR 00/M16 A3032 RMK AO2 SLP261
T00001161





000
SAUS45 KTWC 260952
MTRSAD
METAR KSAD 260951Z AUTO 07006KT 10SM CLR 00/M16 A3032 RMK AO2 SLP261
T00001161





000
SAUS45 KTWC 260853
MTRSAD
METAR KSAD 260851Z AUTO 11004KT 10SM CLR 00/M17 A3033 RMK AO2 SLP264
T00001167 51002





000
SAUS45 KTWC 260752
MTRSAD
METAR KSAD 260751Z AUTO 16005KT 10SM CLR 02/M17 A3033 RMK AO2 SLP262
T00171167





000
SAUS45 KTWC 260652
MTRSAD
METAR KSAD 260651Z AUTO 10003KT 10SM CLR 02/M16 A3033 RMK AO2 SLP264
T00171161 401441028





000
SAUS45 KTWC 260552
MTRSAD
METAR KSAD 260551Z AUTO 16006KT 10SM CLR 03/M16 A3032 RMK AO2 SLP261
T00281156 10133 20022 53004





000
SAUS45 KTWC 260452
MTRSAD
METAR KSAD 260451Z AUTO 00000KT 10SM CLR 03/M16 A3031 RMK AO2 SLP260
T00281156





000
SAUS45 KTWC 260352
MTRSAD
METAR KSAD 260351Z AUTO 10006KT 10SM CLR 04/M16 A3031 RMK AO2 SLP262
T00391161





000
SAUS45 KTWC 260352
MTRSAD
METAR KSAD 260351Z AUTO 10006KT 10SM CLR 04/M16 A3031 RMK AO2 SLP262
T00391161





000
SAUS45 KTWC 260252
MTRSAD
METAR KSAD 260251Z AUTO 35003KT 10SM CLR 04/M16 A3031 RMK AO2 SLP268
T00391161 53004





000
SAUS45 KTWC 260153
MTRSAD
METAR KSAD 260151Z AUTO 35004KT 10SM CLR 06/M16 A3030 RMK AO2 SLP266
T00611161





000
SAUS45 KTWC 260052
MTRSAD
METAR KSAD 260051Z AUTO 23004KT 10SM CLR 10/M17 A3030 RMK AO2 SLP255
T01001167





000
SAUS45 KTWC 252352
MTRSAD
METAR KSAD 252351Z AUTO 19003KT 10SM CLR 13/M18 A3030 RMK AO2 SLP252
T01331178 10144 20106 56012





000
SAUS45 KTWC 252252
MTRSAD
METAR KSAD 252251Z AUTO 28004KT 10SM CLR 14/M19 A3030 RMK AO2 SLP250
T01391194





000
SAUS45 KTWC 252152
MTRSAD
METAR KSAD 252151Z AUTO 00000KT 10SM CLR 14/M19 A3032 RMK AO2 SLP259
T01391194





000
SAUS45 KTWC 252152
MTRSAD
METAR KSAD 252151Z AUTO 00000KT 10SM CLR 14/M19 A3032 RMK AO2 SLP259
T01391194





000
SAUS45 KTWC 252052
MTRSAD
METAR KSAD 252051Z AUTO 00000KT 10SM CLR 14/M19 A3034 RMK AO2 SLP265
T01391189 58036





000
SAUS45 KTWC 251952
MTRSAD
METAR KSAD 251951Z AUTO 12004KT 10SM CLR 13/M18 A3038 RMK AO2 SLP276
T01281183





000
SAUS45 KTWC 251852
MTRSAD
METAR KSAD 251851Z AUTO 15006KT 10SM CLR 12/M17 A3042 RMK AO2 SLP292
T01171172





000
SAUS45 KTWC 251752
MTRSAD
METAR KSAD 251751Z AUTO 12006KT 10SM CLR 11/M16 A3045 RMK AO2 SLP300
T01111161 10111 21028 58005





000
SAUS45 KTWC 251652
MTRSAD
METAR KSAD 251651Z AUTO 12009KT 10SM CLR 08/M15 A3048 RMK AO2 SLP311
T00831150





000
SAUS45 KTWC 251652
MTRSAD
METAR KSAD 251651Z AUTO 12009KT 10SM CLR 08/M15 A3048 RMK AO2 SLP311
T00831150





000
SAUS45 KTWC 251552
MTRSAD
METAR KSAD 251551Z AUTO 16005KT 10SM CLR 06/M16 A3047 RMK AO2 SLP313
T00561156





000
SAUS45 KTWC 251452
MTRSAD
METAR KSAD 251451Z AUTO 00000KT 10SM CLR 01/M15 A3047 RMK AO2 SLP312
T00111150 53022





000
SAUS45 KTWC 251352
MTRSAD
METAR KSAD 251351Z AUTO 29004KT 10SM CLR M02/M16 A3045 RMK AO2
SLP307 T10221156





    US Dept of Commerce
    National Oceanic and Atmospheric Administration
    National Weather Service
    1325 East West Highway
    Silver Spring, MD 20910
    Page Author: NWS Internet Services Team
Disclaimer
Information Quality
Credits
Glossary
Privacy Policy
Freedom of Information Act (FOIA)
About Us
Career Opportunities